createdAt,value
2018-07-22T00:00:38.070Z,22.48
2018-07-22T00:01:38.654Z,22.50
2018-07-22T00:02:39.240Z,22.51
2018-07-22T00:03:39.873Z,22.50
2018-07-22T00:04:40.459Z,22.45
2018-07-22T00:05:41.045Z,22.50
2018-07-22T00:06:41.628Z,22.47
2018-07-22T00:07:42.213Z,22.54
2018-07-22T00:08:42.798Z,22.48
2018-07-22T00:09:43.434Z,22.55
2018-07-22T00:10:44.022Z,22.51
2018-07-22T00:11:44.608Z,22.50
2018-07-22T00:12:45.192Z,22.45
2018-07-22T00:13:45.777Z,22.54
2018-07-22T00:14:46.363Z,22.51
2018-07-22T00:15:46.944Z,22.45
2018-07-22T00:16:47.533Z,22.43
2018-07-22T00:17:48.112Z,22.50
2018-07-22T00:18:48.698Z,22.41
2018-07-22T00:19:49.284Z,22.41
2018-07-22T00:20:49.870Z,22.39
2018-07-22T00:21:50.507Z,22.32
2018-07-22T00:22:51.094Z,22.43
2018-07-22T00:23:51.777Z,22.47
2018-07-22T00:24:52.413Z,22.39
2018-07-22T00:25:52.998Z,22.44
2018-07-22T00:26:53.584Z,22.33
2018-07-22T00:27:54.166Z,22.39
2018-07-22T00:28:54.755Z,22.45
2018-07-22T00:29:55.340Z,22.43
2018-07-22T00:30:55.924Z,22.39
2018-07-22T00:31:56.503Z,22.41
2018-07-22T00:32:57.093Z,22.43
2018-07-22T00:33:57.678Z,22.45
2018-07-22T00:34:58.313Z,22.41
2018-07-22T00:35:58.900Z,22.43
2018-07-22T00:36:59.533Z,22.39
2018-07-22T00:38:00.161Z,22.44
2018-07-22T00:39:00.750Z,22.36
2018-07-22T00:40:01.338Z,22.38
2018-07-22T00:41:01.922Z,22.39
2018-07-22T00:42:02.506Z,22.41
2018-07-22T00:43:03.089Z,22.39
2018-07-22T00:44:08.827Z,22.39
2018-07-22T00:45:09.413Z,22.45
2018-07-22T00:46:10.048Z,22.36
2018-07-22T00:47:10.684Z,22.44
2018-07-22T00:48:11.271Z,22.43
2018-07-22T00:49:11.856Z,22.41
2018-07-22T00:50:12.439Z,22.43
2018-07-22T00:51:13.027Z,22.41
2018-07-22T00:52:13.662Z,22.41
2018-07-22T00:53:14.298Z,22.33
2018-07-22T00:54:14.881Z,22.44
2018-07-22T00:55:15.471Z,22.39
2018-07-22T00:56:16.053Z,22.38
2018-07-22T00:57:16.633Z,22.38
2018-07-22T00:58:17.215Z,22.36
2018-07-22T00:59:17.805Z,22.41
2018-07-22T01:00:18.472Z,22.36
2018-07-22T01:01:18.970Z,22.33
2018-07-22T01:02:19.559Z,22.36
2018-07-22T01:03:20.146Z,22.41
2018-07-22T01:04:20.822Z,22.43
2018-07-22T01:05:21.406Z,22.35
2018-07-22T01:06:21.992Z,22.29
2018-07-22T01:07:22.580Z,22.36
2018-07-22T01:08:23.207Z,22.32
2018-07-22T01:09:23.795Z,22.32
2018-07-22T01:10:24.381Z,22.39
2018-07-22T01:11:25.015Z,22.32
2018-07-22T01:12:25.651Z,22.29
2018-07-22T01:13:26.239Z,22.26
2018-07-22T01:14:26.823Z,22.30
2018-07-22T01:15:27.408Z,22.26
2018-07-22T01:16:27.992Z,22.29
2018-07-22T01:17:28.574Z,22.25
2018-07-22T01:18:29.160Z,22.29
2018-07-22T01:19:29.747Z,22.29
2018-07-22T01:20:30.417Z,22.29
2018-07-22T01:21:31.006Z,22.23
2018-07-22T01:22:31.591Z,22.26
2018-07-22T01:23:32.177Z,22.29
2018-07-22T01:24:32.762Z,22.28
2018-07-22T01:25:33.343Z,22.23
2018-07-22T01:26:33.978Z,22.32
2018-07-22T01:27:34.557Z,22.29
2018-07-22T01:28:35.142Z,22.30
2018-07-22T01:29:35.735Z,22.26
2018-07-22T01:30:36.312Z,22.25
2018-07-22T01:31:36.900Z,22.32
2018-07-22T01:32:37.485Z,22.30
2018-07-22T01:33:38.072Z,22.28
2018-07-22T01:34:38.656Z,22.30
2018-07-22T01:35:39.291Z,22.30
2018-07-22T01:36:39.873Z,22.20
2018-07-22T01:37:40.460Z,22.26
2018-07-22T01:38:41.044Z,22.25
2018-07-22T01:39:41.676Z,22.26
2018-07-22T01:40:42.264Z,22.28
2018-07-22T01:41:42.847Z,22.25
2018-07-22T01:42:43.427Z,22.25
2018-07-22T01:43:44.065Z,22.26
2018-07-22T01:44:44.650Z,22.22
2018-07-22T01:45:45.236Z,22.23
2018-07-22T01:46:45.823Z,22.23
2018-07-22T01:47:46.408Z,22.29
2018-07-22T01:48:46.992Z,22.23
2018-07-22T01:49:47.570Z,22.23
2018-07-22T01:50:48.153Z,22.22
2018-07-22T01:51:48.792Z,22.25
2018-07-22T01:52:49.379Z,22.23
2018-07-22T01:53:49.964Z,22.26
2018-07-22T01:54:50.599Z,22.26
2018-07-22T01:55:51.185Z,22.25
2018-07-22T01:56:51.775Z,22.29
2018-07-22T01:57:52.361Z,22.26
2018-07-22T01:58:52.986Z,22.23
2018-07-22T01:59:53.624Z,22.23
2018-07-22T02:00:54.203Z,22.28
2018-07-22T02:01:54.841Z,22.26
2018-07-22T02:02:55.417Z,22.23
2018-07-22T02:03:55.999Z,22.28
2018-07-22T02:04:56.585Z,22.25
2018-07-22T02:05:57.171Z,22.33
2018-07-22T02:06:57.751Z,22.22
2018-07-22T02:07:58.336Z,22.28
2018-07-22T02:08:58.913Z,22.30
2018-07-22T02:09:59.498Z,22.23
2018-07-22T02:11:00.079Z,22.22
2018-07-22T02:12:00.664Z,22.22
2018-07-22T02:13:01.245Z,22.23
2018-07-22T02:14:01.880Z,22.20
2018-07-22T02:15:02.459Z,22.18
2018-07-22T02:16:03.054Z,22.26
2018-07-22T02:17:03.725Z,22.23
2018-07-22T02:18:04.358Z,22.23
2018-07-22T02:19:04.947Z,22.20
2018-07-22T02:20:05.533Z,22.22
2018-07-22T02:21:06.113Z,22.18
2018-07-22T02:22:06.706Z,22.18
2018-07-22T02:23:07.332Z,22.25
2018-07-22T02:24:07.926Z,22.20
2018-07-22T02:25:08.502Z,22.15
2018-07-22T02:26:09.088Z,22.20
2018-07-22T02:27:09.668Z,22.25
2018-07-22T02:28:10.256Z,22.15
2018-07-22T02:29:10.839Z,22.23
2018-07-22T02:30:11.478Z,22.15
2018-07-22T02:31:12.064Z,22.13
2018-07-22T02:32:12.650Z,22.10
2018-07-22T02:33:13.227Z,22.20
2018-07-22T02:34:13.819Z,22.10
2018-07-22T02:35:14.402Z,22.11
2018-07-22T02:36:14.985Z,22.10
2018-07-22T02:37:15.618Z,22.15
2018-07-22T02:38:16.245Z,22.20
2018-07-22T02:39:16.831Z,22.17
2018-07-22T02:40:17.419Z,22.17
2018-07-22T02:41:18.053Z,22.10
2018-07-22T02:42:18.637Z,22.10
2018-07-22T02:43:19.222Z,22.10
2018-07-22T02:44:19.808Z,22.17
2018-07-22T02:45:20.394Z,22.18
2018-07-22T02:46:20.974Z,22.13
2018-07-22T02:47:21.562Z,22.13
2018-07-22T02:48:22.198Z,22.11
2018-07-22T02:49:22.785Z,22.14
2018-07-22T02:50:23.367Z,22.14
2018-07-22T02:51:23.971Z,22.08
2018-07-22T02:52:24.540Z,22.18
2018-07-22T02:53:25.172Z,22.11
2018-07-22T02:54:25.764Z,22.11
2018-07-22T02:55:26.341Z,22.17
2018-07-22T02:56:26.925Z,22.10
2018-07-22T02:57:27.513Z,22.23
2018-07-22T02:58:28.106Z,22.15
2018-07-22T02:59:28.686Z,22.11
2018-07-22T03:00:29.361Z,22.13
2018-07-22T03:01:29.943Z,22.15
2018-07-22T03:02:30.531Z,22.10
2018-07-22T03:03:31.147Z,22.18
2018-07-22T03:04:31.694Z,22.14
2018-07-22T03:05:32.283Z,22.14
2018-07-22T03:06:32.864Z,22.17
2018-07-22T03:07:33.451Z,22.06
2018-07-22T03:08:34.083Z,22.14
2018-07-22T03:09:34.667Z,22.13
2018-07-22T03:10:35.250Z,22.15
2018-07-22T03:11:35.886Z,22.15
2018-07-22T03:12:36.472Z,22.11
2018-07-22T03:13:37.061Z,22.13
2018-07-22T03:14:37.641Z,22.13
2018-07-22T03:15:38.276Z,22.11
2018-07-22T03:16:38.903Z,22.11
2018-07-22T03:17:39.537Z,22.10
2018-07-22T03:18:40.169Z,22.11
2018-07-22T03:19:40.749Z,22.15
2018-07-22T03:20:41.338Z,22.15
2018-07-22T03:21:41.921Z,22.13
2018-07-22T03:22:42.506Z,22.13
2018-07-22T03:23:43.143Z,22.08
2018-07-22T03:24:43.730Z,22.14
2018-07-22T03:25:44.311Z,22.11
2018-07-22T03:26:44.896Z,22.07
2018-07-22T03:27:45.476Z,22.02
2018-07-22T03:28:46.064Z,22.11
2018-07-22T03:29:46.695Z,22.10
2018-07-22T03:30:47.334Z,22.06
2018-07-22T03:31:47.917Z,22.11
2018-07-22T03:32:48.508Z,22.14
2018-07-22T03:33:49.090Z,22.13
2018-07-22T03:34:49.677Z,22.06
2018-07-22T03:35:50.259Z,22.11
2018-07-22T03:36:50.848Z,22.11
2018-07-22T03:37:51.434Z,22.06
2018-07-22T03:38:52.027Z,22.11
2018-07-22T03:39:52.657Z,22.02
2018-07-22T03:40:53.244Z,22.06
2018-07-22T03:41:53.831Z,22.06
2018-07-22T03:42:54.410Z,22.06
2018-07-22T03:43:54.995Z,22.10
2018-07-22T03:44:55.577Z,22.14
2018-07-22T03:45:56.164Z,22.06
2018-07-22T03:46:56.748Z,22.11
2018-07-22T03:47:57.334Z,22.02
2018-07-22T03:48:57.960Z,22.10
2018-07-22T03:49:58.555Z,22.04
2018-07-22T03:50:59.184Z,22.06
2018-07-22T03:51:59.821Z,22.08
2018-07-22T03:53:00.397Z,22.10
2018-07-22T03:54:00.977Z,22.02
2018-07-22T03:55:01.563Z,22.06
2018-07-22T03:56:02.195Z,22.10
2018-07-22T03:57:02.780Z,21.99
2018-07-22T03:58:03.368Z,22.11
2018-07-22T03:59:03.992Z,22.07
2018-07-22T04:00:04.580Z,21.99
2018-07-22T04:01:05.160Z,22.14
2018-07-22T04:02:05.746Z,22.08
2018-07-22T04:03:06.415Z,22.11
2018-07-22T04:04:07.014Z,22.11
2018-07-22T04:05:07.599Z,22.11
2018-07-22T04:06:08.185Z,22.02
2018-07-22T04:07:08.824Z,22.10
2018-07-22T04:08:09.451Z,22.04
2018-07-22T04:09:10.078Z,22.14
2018-07-22T04:10:10.666Z,22.02
2018-07-22T04:11:11.294Z,22.13
2018-07-22T04:12:11.882Z,22.10
2018-07-22T04:13:12.460Z,22.02
2018-07-22T04:14:13.049Z,22.07
2018-07-22T04:15:13.673Z,22.00
2018-07-22T04:16:14.260Z,22.13
2018-07-22T04:17:14.845Z,22.13
2018-07-22T04:18:15.432Z,21.99
2018-07-22T04:20:35.408Z,22.10
2018-07-22T04:21:35.992Z,22.06
2018-07-22T04:22:36.625Z,22.06
2018-07-22T04:23:37.263Z,22.04
2018-07-22T04:24:37.844Z,22.06
2018-07-22T04:25:38.433Z,22.04
2018-07-22T04:26:39.018Z,22.06
2018-07-22T04:27:39.605Z,22.10
2018-07-22T04:28:40.187Z,22.04
2018-07-22T04:29:40.771Z,22.04
2018-07-22T04:30:41.359Z,22.11
2018-07-22T04:31:41.946Z,22.07
2018-07-22T04:32:42.532Z,22.04
2018-07-22T04:33:43.163Z,22.08
2018-07-22T04:34:43.746Z,22.00
2018-07-22T04:35:44.329Z,21.96
2018-07-22T04:36:44.918Z,22.02
2018-07-22T04:37:45.554Z,22.06
2018-07-22T04:38:46.175Z,22.00
2018-07-22T04:39:46.813Z,22.04
2018-07-22T04:40:47.427Z,22.00
2018-07-22T04:41:48.030Z,22.07
2018-07-22T04:42:48.609Z,22.08
2018-07-22T04:43:49.188Z,22.10
2018-07-22T04:44:49.778Z,22.04
2018-07-22T04:45:50.357Z,22.06
2018-07-22T04:46:50.939Z,21.99
2018-07-22T04:47:51.573Z,22.07
2018-07-22T04:48:52.157Z,22.07
2018-07-22T04:49:52.735Z,21.98
2018-07-22T04:50:53.322Z,22.00
2018-07-22T04:51:53.909Z,22.06
2018-07-22T04:53:56.061Z,22.10
2018-07-22T04:54:56.636Z,22.07
2018-07-22T04:55:57.264Z,22.07
2018-07-22T04:56:57.843Z,22.07
2018-07-22T04:57:58.417Z,22.08
2018-07-22T04:58:58.999Z,22.02
2018-07-22T04:59:59.628Z,22.07
2018-07-22T05:01:00.201Z,22.04
2018-07-22T05:02:00.942Z,22.04
2018-07-22T05:03:01.519Z,22.07
2018-07-22T05:04:02.095Z,22.06
2018-07-22T05:05:02.678Z,22.06
2018-07-22T05:06:03.249Z,22.07
2018-07-22T05:07:03.833Z,22.07
2018-07-22T05:08:04.410Z,22.08
2018-07-22T05:09:04.991Z,22.00
2018-07-22T05:10:05.572Z,22.04
2018-07-22T05:11:06.154Z,22.02
2018-07-22T05:12:06.730Z,22.02
2018-07-22T05:13:07.360Z,22.11
2018-07-22T05:14:07.937Z,22.04
2018-07-22T05:15:08.516Z,21.99
2018-07-22T05:16:09.099Z,22.04
2018-07-22T05:17:09.675Z,22.06
2018-07-22T05:18:10.252Z,22.04
2018-07-22T05:19:10.881Z,22.02
2018-07-22T05:20:11.505Z,22.00
2018-07-22T05:21:12.090Z,22.10
2018-07-22T05:22:12.667Z,22.04
2018-07-22T05:23:13.249Z,22.04
2018-07-22T05:24:13.827Z,22.00
2018-07-22T05:25:14.454Z,21.99
2018-07-22T05:26:15.033Z,22.00
2018-07-22T05:27:15.615Z,21.99
2018-07-22T05:28:16.209Z,21.98
2018-07-22T05:29:16.823Z,21.98
2018-07-22T05:30:22.456Z,21.95
2018-07-22T05:31:23.230Z,21.99
2018-07-22T05:32:23.913Z,21.99
2018-07-22T05:33:24.592Z,21.93
2018-07-22T05:34:25.219Z,22.04
2018-07-22T05:35:25.800Z,21.99
2018-07-22T05:36:26.384Z,22.00
2018-07-22T05:37:26.954Z,21.99
2018-07-22T05:38:27.537Z,21.96
2018-07-22T05:39:28.116Z,21.96
2018-07-22T05:40:28.696Z,22.02
2018-07-22T05:41:29.271Z,21.99
2018-07-22T05:42:29.854Z,22.02
2018-07-22T05:43:30.428Z,21.99
2018-07-22T05:44:31.010Z,21.99
2018-07-22T05:45:31.588Z,21.98
2018-07-22T05:46:32.169Z,21.96
2018-07-22T05:47:32.799Z,21.95
2018-07-22T05:48:33.378Z,21.95
2018-07-22T05:49:34.104Z,21.92
2018-07-22T05:50:34.736Z,21.92
2018-07-22T05:51:35.364Z,21.92
2018-07-22T05:52:35.943Z,21.92
2018-07-22T05:53:36.518Z,21.93
2018-07-22T05:54:37.099Z,21.93
2018-07-22T05:55:37.724Z,21.93
2018-07-22T05:56:38.308Z,21.96
2018-07-22T05:57:38.882Z,21.89
2018-07-22T05:58:39.463Z,21.92
2018-07-22T05:59:40.082Z,21.92
2018-07-22T06:00:40.659Z,21.93
2018-07-22T06:01:41.284Z,22.00
2018-07-22T06:02:41.864Z,22.04
2018-07-22T06:03:42.440Z,22.04
2018-07-22T06:04:43.021Z,21.95
2018-07-22T06:05:43.648Z,22.00
2018-07-22T06:06:44.225Z,22.02
2018-07-22T06:07:45.006Z,22.00
2018-07-22T06:08:45.635Z,21.98
2018-07-22T06:09:46.210Z,21.96
2018-07-22T06:10:46.787Z,21.96
2018-07-22T06:11:47.368Z,21.93
2018-07-22T06:12:47.939Z,21.92
2018-07-22T06:13:48.514Z,21.93
2018-07-22T06:14:49.092Z,21.91
2018-07-22T06:15:49.675Z,21.93
2018-07-22T06:16:50.248Z,21.89
2018-07-22T06:17:50.826Z,21.95
2018-07-22T06:18:51.454Z,21.92
2018-07-22T06:19:52.033Z,21.95
2018-07-22T06:20:52.612Z,21.93
2018-07-22T06:21:53.193Z,21.92
2018-07-22T06:22:53.822Z,21.87
2018-07-22T06:23:54.398Z,21.98
2018-07-22T06:24:55.028Z,21.89
2018-07-22T06:25:55.601Z,21.92
2018-07-22T06:26:56.229Z,21.98
2018-07-22T06:27:56.808Z,21.89
2018-07-22T06:28:57.383Z,21.89
2018-07-22T06:29:57.959Z,21.87
2018-07-22T06:30:58.542Z,21.85
2018-07-22T06:31:59.117Z,21.91
2018-07-22T06:32:59.700Z,21.91
2018-07-22T06:34:00.273Z,21.85
2018-07-22T06:35:00.853Z,21.89
2018-07-22T06:36:01.430Z,21.89
2018-07-22T06:37:02.011Z,21.89
2018-07-22T06:38:02.592Z,21.89
2018-07-22T06:39:03.222Z,21.91
2018-07-22T06:40:03.852Z,21.89
2018-07-22T06:41:04.474Z,21.89
2018-07-22T06:42:05.058Z,21.93
2018-07-22T06:43:05.628Z,21.96
2018-07-22T06:44:06.205Z,21.92
2018-07-22T06:45:06.788Z,21.85
2018-07-22T06:46:07.400Z,21.85
2018-07-22T06:47:07.942Z,21.85
2018-07-22T06:48:08.521Z,21.89
2018-07-22T06:49:09.105Z,21.91
2018-07-22T06:50:09.676Z,21.91
2018-07-22T06:51:10.258Z,21.87
2018-07-22T06:52:10.838Z,21.87
2018-07-22T06:53:11.411Z,21.87
2018-07-22T06:54:12.046Z,21.87
2018-07-22T06:55:12.577Z,21.85
2018-07-22T06:56:13.207Z,21.85
2018-07-22T06:57:13.895Z,21.85
2018-07-22T06:58:14.422Z,21.91
2018-07-22T06:59:14.996Z,21.89
2018-07-22T07:00:15.579Z,21.85
2018-07-22T07:01:16.162Z,21.91
2018-07-22T07:02:16.742Z,21.89
2018-07-22T07:03:17.371Z,21.91
2018-07-22T07:04:17.951Z,21.89
2018-07-22T07:05:18.584Z,21.89
2018-07-22T07:06:19.155Z,21.85
2018-07-22T07:07:19.734Z,21.93
2018-07-22T07:08:20.309Z,21.95
2018-07-22T07:09:20.891Z,21.89
2018-07-22T07:10:21.472Z,21.92
2018-07-22T07:11:22.147Z,21.89
2018-07-22T07:12:22.726Z,21.85
2018-07-22T07:13:23.356Z,21.96
2018-07-22T07:14:23.930Z,21.89
2018-07-22T07:15:24.516Z,21.92
2018-07-22T07:16:25.141Z,21.87
2018-07-22T07:17:25.720Z,21.89
2018-07-22T07:18:26.301Z,21.91
2018-07-22T07:19:26.880Z,21.89
2018-07-22T07:20:27.459Z,21.89
2018-07-22T07:21:28.040Z,21.92
2018-07-22T07:22:28.621Z,21.95
2018-07-22T07:23:29.201Z,21.92
2018-07-22T07:24:29.833Z,21.89
2018-07-22T07:25:30.410Z,21.80
2018-07-22T07:26:30.992Z,21.93
2018-07-22T07:27:31.567Z,21.89
2018-07-22T07:28:32.201Z,21.95
2018-07-22T07:29:32.831Z,21.89
2018-07-22T07:30:33.409Z,21.93
2018-07-22T07:31:33.991Z,21.96
2018-07-22T07:32:34.571Z,21.91
2018-07-22T07:33:35.241Z,21.89
2018-07-22T07:34:35.806Z,21.83
2018-07-22T07:35:36.389Z,21.98
2018-07-22T07:36:36.967Z,21.98
2018-07-22T07:37:37.547Z,21.96
2018-07-22T07:38:38.126Z,21.96
2018-07-22T07:39:38.750Z,21.92
2018-07-22T07:40:39.337Z,21.93
2018-07-22T07:41:39.909Z,21.85
2018-07-22T07:42:40.491Z,22.02
2018-07-22T07:43:41.116Z,21.98
2018-07-22T07:44:41.703Z,22.00
2018-07-22T07:45:42.333Z,22.02
2018-07-22T07:46:42.911Z,21.92
2018-07-22T07:47:43.492Z,22.06
2018-07-22T07:48:44.119Z,21.93
2018-07-22T07:49:44.696Z,21.92
2018-07-22T07:50:45.328Z,21.91
2018-07-22T07:51:45.904Z,21.95
2018-07-22T07:52:46.483Z,21.87
2018-07-22T07:53:47.057Z,21.93
2018-07-22T07:54:47.692Z,21.92
2018-07-22T07:55:48.271Z,21.92
2018-07-22T07:56:48.852Z,21.93
2018-07-22T07:57:49.422Z,21.99
2018-07-22T07:58:50.007Z,21.96
2018-07-22T07:59:50.587Z,21.93
2018-07-22T08:00:51.219Z,21.89
2018-07-22T08:01:51.796Z,22.00
2018-07-22T08:02:52.377Z,21.83
2018-07-22T08:03:52.961Z,21.91
2018-07-22T08:04:53.536Z,22.02
2018-07-22T08:05:54.117Z,22.00
2018-07-22T08:06:54.696Z,21.99
2018-07-22T08:07:55.276Z,22.04
2018-07-22T08:08:55.857Z,22.00
2018-07-22T08:09:56.438Z,21.98
2018-07-22T08:10:57.013Z,21.99
2018-07-22T08:11:57.590Z,21.99
2018-07-22T08:12:58.220Z,22.02
2018-07-22T08:13:58.795Z,22.07
2018-07-22T08:14:59.427Z,22.02
2018-07-22T08:16:00.009Z,22.06
2018-07-22T08:17:00.796Z,22.08
2018-07-22T08:18:01.368Z,22.00
2018-07-22T08:19:01.985Z,22.06
2018-07-22T08:20:02.532Z,22.08
2018-07-22T08:21:03.113Z,22.04
2018-07-22T08:22:03.798Z,22.04
2018-07-22T08:23:04.316Z,22.13
2018-07-22T08:24:04.898Z,22.06
2018-07-22T08:25:05.472Z,22.10
2018-07-22T08:26:06.145Z,22.02
2018-07-22T08:27:06.682Z,22.08
2018-07-22T08:28:07.261Z,22.14
2018-07-22T08:29:07.841Z,22.13
2018-07-22T08:30:08.416Z,22.10
2018-07-22T08:31:09.004Z,22.22
2018-07-22T08:32:09.643Z,22.33
2018-07-22T08:33:10.225Z,22.44
2018-07-22T08:34:10.857Z,22.44
2018-07-22T08:35:11.442Z,22.38
2018-07-22T08:36:12.074Z,22.35
2018-07-22T08:37:12.653Z,22.41
2018-07-22T08:38:13.238Z,22.36
2018-07-22T08:39:13.826Z,22.45
2018-07-22T08:40:14.405Z,22.43
2018-07-22T08:41:15.044Z,22.43
2018-07-22T08:42:15.574Z,22.39
2018-07-22T08:43:16.155Z,22.54
2018-07-22T08:44:16.783Z,22.45
2018-07-22T08:45:17.367Z,22.43
2018-07-22T08:46:17.946Z,22.45
2018-07-22T08:47:18.525Z,22.44
2018-07-22T08:48:19.113Z,22.50
2018-07-22T08:49:19.695Z,22.43
2018-07-22T08:50:20.280Z,22.39
2018-07-22T08:51:20.863Z,22.41
2018-07-22T08:52:21.499Z,22.36
2018-07-22T08:53:22.085Z,22.38
2018-07-22T08:54:22.719Z,22.43
2018-07-22T08:55:23.303Z,22.47
2018-07-22T08:56:23.936Z,22.44
2018-07-22T08:57:24.523Z,22.53
2018-07-22T08:58:25.101Z,22.63
2018-07-22T08:59:25.691Z,22.63
2018-07-22T09:00:26.271Z,22.63
2018-07-22T09:01:26.856Z,22.60
2018-07-22T09:02:32.492Z,22.60
2018-07-22T09:03:33.075Z,22.65
2018-07-22T09:04:33.660Z,22.59
2018-07-22T09:05:34.304Z,22.66
2018-07-22T09:06:34.829Z,22.69
2018-07-22T09:07:35.419Z,22.76
2018-07-22T09:08:36.008Z,22.75
2018-07-22T09:09:36.637Z,22.69
2018-07-22T09:10:37.228Z,22.73
2018-07-22T09:11:37.858Z,22.81
2018-07-22T09:12:38.445Z,22.85
2018-07-22T09:13:39.033Z,22.85
2018-07-22T09:14:39.613Z,22.87
2018-07-22T09:15:40.197Z,22.94
2018-07-22T09:16:40.783Z,22.96
2018-07-22T09:17:41.376Z,23.00
2018-07-22T09:18:42.003Z,23.03
2018-07-22T09:19:42.590Z,23.03
2018-07-22T09:20:43.226Z,23.00
2018-07-22T09:21:43.811Z,23.09
2018-07-22T09:22:44.393Z,23.21
2018-07-22T09:23:44.978Z,23.21
2018-07-22T09:24:45.567Z,23.20
2018-07-22T09:25:46.202Z,23.25
2018-07-22T09:26:46.792Z,23.23
2018-07-22T09:27:47.424Z,23.39
2018-07-22T09:28:48.004Z,23.31
2018-07-22T09:29:48.588Z,23.27
2018-07-22T09:30:49.224Z,23.23
2018-07-22T09:31:49.806Z,23.20
2018-07-22T09:32:50.387Z,23.20
2018-07-22T09:33:50.970Z,23.24
2018-07-22T09:34:51.555Z,23.23
2018-07-22T09:35:52.201Z,23.36
2018-07-22T09:36:52.729Z,23.37
2018-07-22T09:37:53.317Z,23.39
2018-07-22T09:38:53.900Z,23.44
2018-07-22T09:39:54.490Z,23.47
2018-07-22T09:40:55.070Z,23.50
2018-07-22T09:41:55.774Z,23.55
2018-07-22T09:42:56.297Z,23.61
2018-07-22T09:43:56.925Z,23.63
2018-07-22T09:44:57.656Z,23.65
2018-07-22T09:45:58.246Z,23.68
2018-07-22T09:46:58.880Z,23.65
2018-07-22T09:47:59.509Z,23.61
2018-07-22T09:49:00.054Z,23.58
2018-07-22T09:50:00.640Z,23.63
2018-07-22T09:51:01.428Z,23.63
2018-07-22T09:52:02.010Z,23.69
2018-07-22T09:53:02.599Z,23.65
2018-07-22T09:54:03.233Z,23.77
2018-07-22T09:55:03.823Z,23.76
2018-07-22T09:56:04.409Z,23.71
2018-07-22T09:57:04.996Z,23.73
2018-07-22T09:58:05.636Z,23.77
2018-07-22T09:59:06.278Z,23.80
2018-07-22T10:00:06.900Z,23.74
2018-07-22T10:01:07.484Z,23.71
2018-07-22T10:02:08.071Z,23.62
2018-07-22T10:03:08.853Z,23.59
2018-07-22T10:04:09.443Z,23.58
2018-07-22T10:05:10.028Z,23.61
2018-07-22T10:06:10.667Z,23.61
2018-07-22T10:07:11.256Z,23.66
2018-07-22T10:08:11.846Z,23.65
2018-07-22T10:09:12.436Z,23.69
2018-07-22T10:10:13.071Z,23.76
2018-07-22T10:11:13.669Z,23.71
2018-07-22T10:12:14.240Z,23.71
2018-07-22T10:13:14.872Z,23.63
2018-07-22T10:14:15.463Z,23.76
2018-07-22T10:15:16.046Z,23.71
2018-07-22T10:16:16.632Z,23.77
2018-07-22T10:17:17.268Z,23.87
2018-07-22T10:18:17.856Z,23.88
2018-07-22T10:19:18.437Z,23.88
2018-07-22T10:20:19.077Z,23.77
2018-07-22T10:21:19.663Z,23.77
2018-07-22T10:22:20.252Z,23.80
2018-07-22T10:23:20.886Z,23.81
2018-07-22T10:24:21.425Z,23.73
2018-07-22T10:25:22.014Z,23.74
2018-07-22T10:26:22.650Z,23.71
2018-07-22T10:27:23.237Z,23.77
2018-07-22T10:28:23.825Z,23.74
2018-07-22T10:29:24.448Z,23.76
2018-07-22T10:30:25.033Z,23.77
2018-07-22T10:31:25.625Z,23.83
2018-07-22T10:32:26.256Z,23.80
2018-07-22T10:33:26.841Z,23.77
2018-07-22T10:34:27.425Z,23.81
2018-07-22T10:35:28.013Z,23.78
2018-07-22T10:36:28.605Z,23.78
2018-07-22T10:37:29.241Z,23.78
2018-07-22T10:38:29.824Z,23.74
2018-07-22T10:39:30.414Z,23.71
2018-07-22T10:40:31.054Z,23.77
2018-07-22T10:41:31.637Z,23.73
2018-07-22T10:42:32.227Z,23.78
2018-07-22T10:43:32.818Z,23.68
2018-07-22T10:44:33.453Z,23.73
2018-07-22T10:45:34.043Z,23.76
2018-07-22T10:46:34.631Z,23.69
2018-07-22T10:47:35.219Z,23.76
2018-07-22T10:48:35.802Z,23.78
2018-07-22T10:49:36.434Z,23.92
2018-07-22T10:50:37.026Z,23.91
2018-07-22T10:51:37.661Z,23.92
2018-07-22T10:52:38.251Z,23.92
2018-07-22T10:53:38.842Z,23.88
2018-07-22T10:54:39.431Z,23.88
2018-07-22T10:55:40.019Z,23.93
2018-07-22T10:56:40.618Z,23.98
2018-07-22T10:57:41.291Z,23.86
2018-07-22T10:58:41.930Z,23.95
2018-07-22T10:59:42.523Z,24.03
2018-07-22T11:00:43.158Z,24.02
2018-07-22T11:01:43.753Z,24.01
2018-07-22T11:02:44.347Z,24.05
2018-07-22T11:03:44.933Z,23.99
2018-07-22T11:04:45.518Z,24.11
2018-07-22T11:05:46.161Z,24.02
2018-07-22T11:06:46.751Z,24.05
2018-07-22T11:07:47.341Z,24.05
2018-07-22T11:08:47.933Z,23.95
2018-07-22T11:09:48.521Z,23.96
2018-07-22T11:10:49.111Z,23.96
2018-07-22T11:11:49.705Z,23.95
2018-07-22T11:12:50.296Z,23.98
2018-07-22T11:13:50.888Z,24.02
2018-07-22T11:14:51.599Z,24.03
2018-07-22T11:16:05.932Z,23.92
2018-07-22T11:17:06.578Z,23.95
2018-07-22T11:18:07.216Z,24.03
2018-07-22T11:19:07.855Z,24.01
2018-07-22T11:20:08.442Z,24.05
2018-07-22T11:21:09.075Z,24.03
2018-07-22T11:22:09.632Z,24.06
2018-07-22T11:23:10.222Z,24.03
2018-07-22T11:24:10.809Z,24.01
2018-07-22T11:25:11.400Z,23.95
2018-07-22T11:26:11.996Z,23.99
2018-07-22T11:27:12.588Z,23.95
2018-07-22T11:28:13.178Z,24.05
2018-07-22T11:29:13.771Z,24.03
2018-07-22T11:30:14.364Z,24.06
2018-07-22T11:31:15.057Z,23.96
2018-07-22T11:32:15.697Z,24.01
2018-07-22T11:33:16.392Z,23.93
2018-07-22T11:34:16.986Z,24.01
2018-07-22T11:35:17.583Z,23.99
2018-07-22T11:36:18.217Z,23.96
2018-07-22T11:37:18.905Z,24.01
2018-07-22T11:38:19.502Z,24.03
2018-07-22T11:39:20.135Z,24.03
2018-07-22T11:41:23.524Z,24.23
2018-07-22T11:42:24.117Z,24.28
2018-07-22T11:43:24.712Z,24.29
2018-07-22T11:44:25.303Z,24.20
2018-07-22T11:45:25.895Z,24.24
2018-07-22T11:46:26.490Z,24.29
2018-07-22T11:47:27.084Z,24.38
2018-07-22T11:48:27.673Z,24.39
2018-07-22T11:49:28.471Z,24.35
2018-07-22T11:50:29.121Z,24.33
2018-07-22T11:51:29.657Z,24.38
2018-07-22T11:52:30.300Z,24.40
2018-07-22T11:53:30.941Z,24.29
2018-07-22T11:54:31.538Z,24.35
2018-07-22T11:55:32.135Z,24.26
2018-07-22T11:56:32.725Z,24.35
2018-07-22T11:57:33.324Z,24.38
2018-07-22T11:58:33.962Z,24.40
2018-07-22T11:59:34.561Z,24.50
2018-07-22T12:00:35.156Z,24.50
2018-07-22T12:01:35.765Z,24.53
2018-07-22T12:02:36.349Z,24.47
2018-07-22T12:03:36.943Z,24.53
2018-07-22T12:04:37.536Z,24.50
2018-07-22T12:05:38.132Z,24.55
2018-07-22T12:06:38.728Z,24.57
2018-07-22T12:07:39.337Z,24.53
2018-07-22T12:08:39.963Z,24.55
2018-07-22T12:09:40.564Z,24.57
2018-07-22T12:10:41.156Z,24.58
2018-07-22T12:11:41.792Z,24.77
2018-07-22T12:12:42.385Z,24.76
2018-07-22T12:13:43.032Z,24.88
2018-07-22T12:14:43.630Z,24.93
2018-07-22T12:15:44.226Z,24.99
2018-07-22T12:16:44.825Z,24.99
2018-07-22T12:17:45.461Z,25.06
2018-07-22T12:18:46.062Z,25.10
2018-07-22T12:19:46.653Z,25.16
2018-07-22T12:20:47.248Z,25.14
2018-07-22T12:23:03.693Z,25.78
2018-07-22T12:24:04.333Z,26.10
2018-07-22T12:25:04.924Z,26.25
2018-07-22T12:26:05.522Z,26.29
2018-07-22T12:27:06.118Z,26.25
2018-07-22T12:28:06.744Z,26.18
2018-07-22T12:29:07.454Z,26.07
2018-07-22T12:30:07.993Z,25.93
2018-07-22T12:31:08.591Z,25.98
2018-07-22T12:32:09.190Z,25.87
2018-07-22T12:33:09.785Z,25.87
2018-07-22T12:34:10.428Z,25.98
2018-07-22T12:35:11.027Z,25.99
2018-07-22T12:36:11.623Z,25.87
2018-07-22T12:37:12.270Z,25.84
2018-07-22T12:38:12.867Z,26.02
2018-07-22T12:39:13.463Z,25.93
2018-07-22T12:40:14.111Z,26.10
2018-07-22T12:41:14.652Z,26.18
2018-07-22T12:42:15.247Z,26.15
2018-07-22T12:43:15.894Z,26.25
2018-07-22T12:44:16.488Z,26.36
2018-07-22T12:45:17.135Z,26.41
2018-07-22T12:46:17.730Z,26.51
2018-07-22T12:47:18.324Z,26.63
2018-07-22T12:48:18.917Z,26.65
2018-07-22T12:49:19.560Z,26.68
2018-07-22T12:50:20.156Z,26.68
2018-07-22T12:51:20.801Z,26.78
2018-07-22T12:52:21.388Z,26.83
2018-07-22T12:53:21.986Z,26.78
2018-07-22T12:54:22.589Z,26.89
2018-07-22T12:55:23.243Z,26.92
2018-07-22T12:56:23.848Z,27.02
2018-07-22T12:57:24.447Z,27.12
2018-07-22T12:58:25.048Z,27.14
2018-07-22T12:59:25.647Z,27.26
2018-07-22T13:00:26.251Z,27.29
2018-07-22T13:01:26.853Z,27.37
2018-07-22T13:02:27.654Z,27.39
2018-07-22T13:03:28.256Z,27.58
2018-07-22T13:04:28.860Z,27.55
2018-07-22T13:05:29.462Z,27.65